< < Back
Terminal Aerodrome Forecast


Current Version              Previous Versions:   1  2  3  4  5  6  7  8  9  

Terminal Aerodrome Forecast

487
FTUS42 KMLB 152300
TAFDAB
TAF
KDAB 152335Z 1600/1624 22006KT P6SM VCSH SCT025 BKN100
     FM160200 32011G18KT P6SM BKN020 BKN200
     FM161200 02013G22KT P6SM SCT020 BKN250=

Latest METAR

565
SAUS80 KWBC 170400 RRA
MTRDAB
METAR KDAB 170353Z 06007KT 10SM FEW055 18/12 A3020 RMK AO2 SLP225
T01830122 $


USA.gov is the U.S. government's official web portal to all federal, state and local government web resources and services.